Time;durP1;ratioP1;P1;durP2;ratioP2;P2;SDS_P1;SDS_P2;PMS_P1;PMS_P2;Temp;Humidity;BMP_temperature;BMP_pressure;BME280_temperature;BME280_humidity;BME280_pressure;Samples;Min_cycle;Max_cycle;Signal;HPM_P1;HPM_P2
2023/08/05 00:00:23;;;;;;;7.10;6.15;;;15.50;99.90;;;;;;5058654;28;20780;-71
2023/08/05 00:02:50;;;;;;;7.93;6.65;;;15.50;99.90;;;;;;5062592;28;20507;-72
2023/08/05 00:05:17;;;;;;;7.32;6.60;;;15.50;99.90;;;;;;5061533;28;20437;-71
2023/08/05 00:07:44;;;;;;;7.18;6.57;;;15.50;99.90;;;;;;5054679;28;20549;-72
2023/08/05 00:10:10;;;;;;;6.88;6.13;;;15.40;99.90;;;;;;5058685;28;20791;-71
2023/08/05 00:12:37;;;;;;;7.60;6.50;;;15.40;99.90;;;;;;5058551;28;20806;-71
2023/08/05 00:15:06;;;;;;;6.85;6.18;;;15.40;99.90;;;;;;5067918;28;20432;-72
2023/08/05 00:17:33;;;;;;;7.50;6.65;;;15.40;99.90;;;;;;5063155;28;20846;-72
2023/08/05 00:20:00;;;;;;;6.90;6.20;;;15.30;99.90;;;;;;5067492;28;20508;-71
2023/08/05 00:22:27;;;;;;;8.63;6.57;;;15.30;99.90;;;;;;5063091;28;20878;-71
2023/08/05 00:24:53;;;;;;;7.95;5.55;;;15.30;99.90;;;;;;5052409;28;20497;-71
2023/08/05 00:27:20;;;;;;;7.25;5.80;;;15.30;99.90;;;;;;5057156;28;20462;-71
2023/08/05 00:29:47;;;;;;;7.50;6.22;;;15.30;99.90;;;;;;5060201;28;20419;-71
2023/08/05 00:32:15;;;;;;;7.57;6.10;;;15.20;99.90;;;;;;5088566;22;20449;-72
2023/08/05 00:34:41;;;;;;;6.70;6.10;;;15.20;99.90;;;;;;5083068;28;20425;-70
2023/08/05 00:37:08;;;;;;;6.82;6.22;;;15.20;99.90;;;;;;5086879;28;20688;-71
2023/08/05 00:39:35;;;;;;;7.25;6.25;;;15.20;99.90;;;;;;5089854;28;20437;-72
2023/08/05 00:42:02;;;;;;;6.97;6.38;;;15.10;99.90;;;;;;5083453;28;20422;-72
2023/08/05 00:44:29;;;;;;;6.72;6.03;;;15.10;99.90;;;;;;5089844;28;20430;-70
2023/08/05 00:46:57;;;;;;;7.33;6.37;;;15.10;99.90;;;;;;5085872;28;20502;-71
2023/08/05 00:49:25;;;;;;;8.25;6.10;;;15.10;99.90;;;;;;5085928;28;20430;-71
2023/08/05 00:51:53;;;;;;;6.68;6.05;;;15.10;99.90;;;;;;5088044;28;20430;-71
2023/08/05 00:54:20;;;;;;;8.50;6.90;;;15.10;99.90;;;;;;5087371;28;20425;-71
2023/08/05 00:56:47;;;;;;;6.90;6.20;;;15.10;99.90;;;;;;5086008;28;20453;-71
2023/08/05 00:59:14;;;;;;;7.05;6.28;;;15.00;99.90;;;;;;5077408;28;20448;-71
2023/08/05 01:01:41;;;;;;;7.47;6.78;;;15.00;99.90;;;;;;5081090;28;20434;-71
2023/08/05 01:04:08;;;;;;;7.38;6.57;;;15.00;99.90;;;;;;5085950;28;20460;-71
2023/08/05 01:06:36;;;;;;;7.63;6.85;;;15.00;99.90;;;;;;5083032;28;20455;-71
2023/08/05 01:09:03;;;;;;;11.00;7.18;;;15.00;99.90;;;;;;5077177;28;20557;-71
2023/08/05 01:11:30;;;;;;;7.90;6.72;;;15.00;99.90;;;;;;5086398;28;20436;-70
2023/08/05 01:13:57;;;;;;;7.50;6.80;;;15.00;99.90;;;;;;5078895;28;20431;-72
2023/08/05 01:16:24;;;;;;;7.43;6.47;;;15.00;99.90;;;;;;5078093;28;20495;-72
2023/08/05 01:18:52;;;;;;;7.80;6.60;;;15.00;99.90;;;;;;5081971;28;20437;-71
2023/08/05 01:21:28;;;;;;;8.10;7.30;;;14.90;99.90;;;;;;5073216;28;20427;-70
2023/08/05 01:24:06;;;;;;;7.47;6.88;;;14.90;99.90;;;;;;5080951;28;20424;-71
2023/08/05 01:26:35;;;;;;;7.50;6.80;;;14.90;99.90;;;;;;5090524;28;20471;-70
2023/08/05 01:29:03;;;;;;;8.10;7.30;;;14.90;99.90;;;;;;5086552;28;20937;-70
2023/08/05 01:31:31;;;;;;;8.98;6.90;;;14.90;99.90;;;;;;5086570;28;20422;-70
2023/08/05 01:33:58;;;;;;;8.13;7.15;;;14.80;99.90;;;;;;5085352;28;20430;-72
2023/08/05 01:36:25;;;;;;;8.40;7.50;;;14.80;99.90;;;;;;5084483;28;20506;-71
2023/08/05 01:38:52;;;;;;;8.63;7.82;;;14.80;99.90;;;;;;5077394;28;20783;-71
2023/08/05 01:41:19;;;;;;;8.07;7.38;;;14.80;99.90;;;;;;5077948;28;20431;-72
2023/08/05 01:43:47;;;;;;;11.90;8.25;;;14.70;99.90;;;;;;5081468;28;20435;-71
2023/08/05 01:46:14;;;;;;;8.50;7.70;;;14.70;99.90;;;;;;5087194;28;20438;-71
2023/08/05 01:48:40;;;;;;;8.88;7.97;;;14.70;99.90;;;;;;5084275;28;20426;-71
2023/08/05 01:51:07;;;;;;;8.30;7.50;;;14.70;99.90;;;;;;5083767;28;20426;-71
2023/08/05 01:53:34;;;;;;;8.25;7.45;;;14.70;99.90;;;;;;5082840;28;20427;-71
2023/08/05 01:56:00;;;;;;;7.88;7.10;;;14.70;99.90;;;;;;5084627;28;20433;-71
2023/08/05 01:58:27;;;;;;;7.90;7.20;;;14.70;99.90;;;;;;5081539;28;20438;-70
2023/08/05 02:00:55;;;;;;;7.90;7.10;;;14.70;99.90;;;;;;5082452;28;20426;-71
2023/08/05 02:03:22;;;;;;;8.70;8.00;;;14.70;99.90;;;;;;5083861;28;20842;-71
2023/08/05 02:05:49;;;;;;;8.85;7.95;;;14.70;99.90;;;;;;5080598;28;20428;-70
2023/08/05 02:08:15;;;;;;;8.40;7.70;;;14.70;99.90;;;;;;5083347;28;20434;-71
2023/08/05 02:10:42;;;;;;;9.55;8.00;;;14.70;99.90;;;;;;5078655;28;20445;-71
2023/08/05 02:13:09;;;;;;;9.63;8.10;;;14.70;99.90;;;;;;5081222;28;20440;-71
2023/08/05 02:15:36;;;;;;;8.20;7.50;;;14.70;99.90;;;;;;5088053;28;20434;-72
2023/08/05 02:18:04;;;;;;;8.57;7.78;;;14.70;99.90;;;;;;5077138;28;20904;-72
2023/08/05 02:20:31;;;;;;;7.95;7.20;;;14.70;99.90;;;;;;5085524;28;20690;-71
2023/08/05 02:22:58;;;;;;;8.57;7.78;;;14.70;99.90;;;;;;5079508;28;20906;-71
2023/08/05 02:25:25;;;;;;;8.60;7.70;;;14.70;99.90;;;;;;5083984;28;20433;-70
2023/08/05 02:27:51;;;;;;;8.60;7.85;;;14.60;99.90;;;;;;5084746;28;20430;-70
2023/08/05 02:30:18;;;;;;;9.77;7.60;;;14.60;99.90;;;;;;5081759;28;20427;-70
2023/08/05 02:32:45;;;;;;;8.85;7.40;;;14.60;99.90;;;;;;5085624;28;20437;-73
2023/08/05 02:35:13;;;;;;;7.60;6.90;;;14.60;99.90;;;;;;5080654;28;20441;-71
2023/08/05 02:37:40;;;;;;;8.40;7.28;;;14.50;99.90;;;;;;5073448;28;20928;-71
2023/08/05 02:40:08;;;;;;;8.75;7.78;;;14.50;99.90;;;;;;5077810;28;20435;-70
2023/08/05 02:42:35;;;;;;;9.40;7.50;;;14.50;99.90;;;;;;5080300;28;20427;-70
2023/08/05 02:45:02;;;;;;;8.10;7.40;;;14.50;99.90;;;;;;5080856;28;20473;-72
2023/08/05 02:47:29;;;;;;;8.60;7.70;;;14.40;99.90;;;;;;5074079;28;20466;-71
2023/08/05 02:49:55;;;;;;;8.97;8.07;;;14.50;99.90;;;;;;5076336;28;20429;-71
2023/08/05 02:52:24;;;;;;;9.10;7.57;;;14.40;99.90;;;;;;5086151;28;20425;-69
2023/08/05 02:54:50;;;;;;;8.23;7.43;;;14.40;99.90;;;;;;5085547;28;20912;-70
2023/08/05 02:57:17;;;;;;;8.40;7.60;;;14.40;99.90;;;;;;5083592;28;20853;-69
2023/08/05 02:59:44;;;;;;;8.70;7.90;;;14.40;99.90;;;;;;5084509;28;20422;-71
2023/08/05 03:02:10;;;;;;;8.07;7.38;;;14.40;99.90;;;;;;5085270;28;20753;-70
2023/08/05 03:04:37;;;;;;;8.63;7.80;;;14.40;99.90;;;;;;5082672;28;20440;-72
2023/08/05 03:07:04;;;;;;;10.80;8.18;;;14.40;99.90;;;;;;5082528;28;20430;-71
2023/08/05 03:09:32;;;;;;;8.85;7.97;;;14.40;99.90;;;;;;5083083;28;20441;-70
2023/08/05 03:11:59;;;;;;;9.23;8.20;;;14.40;99.90;;;;;;5080118;28;20448;-70
2023/08/05 03:14:26;;;;;;;9.40;8.40;;;14.40;99.90;;;;;;5081062;28;20428;-71
2023/08/05 03:16:52;;;;;;;9.52;8.40;;;14.40;99.90;;;;;;5082668;28;20461;-71
2023/08/05 03:19:19;;;;;;;8.90;8.00;;;14.40;99.90;;;;;;5080457;28;20444;-70
2023/08/05 03:21:46;;;;;;;9.35;7.90;;;14.40;99.90;;;;;;5079633;28;20453;-72
2023/08/05 03:24:12;;;;;;;10.73;8.60;;;14.50;99.90;;;;;;5073293;28;20426;-71
2023/08/05 03:26:40;;;;;;;8.73;7.35;;;14.50;99.90;;;;;;5086494;28;20795;-70
2023/08/05 03:29:07;;;;;;;8.73;7.90;;;14.50;99.90;;;;;;5084876;28;20782;-71
2023/08/05 03:31:34;;;;;;;7.93;7.13;;;14.50;99.90;;;;;;5080586;28;20481;-70
2023/08/05 03:34:01;;;;;;;8.00;7.20;;;14.50;99.90;;;;;;5069267;28;20510;-71
2023/08/05 03:36:27;;;;;;;8.07;6.78;;;14.50;99.90;;;;;;5087196;28;20430;-70
2023/08/05 03:38:55;;;;;;;7.90;6.50;;;14.40;99.90;;;;;;5082140;28;20433;-73
2023/08/05 03:41:22;;;;;;;7.68;6.88;;;14.40;99.90;;;;;;5074739;28;20500;-70
2023/08/05 03:43:50;;;;;;;8.32;6.70;;;14.40;99.90;;;;;;5082970;28;20437;-71
2023/08/05 03:46:17;;;;;;;8.07;6.78;;;14.40;99.90;;;;;;5083844;28;20431;-71
2023/08/05 03:48:44;;;;;;;7.93;7.13;;;14.30;99.90;;;;;;5082234;28;20908;-71
2023/08/05 03:51:10;;;;;;;8.40;7.60;;;14.30;99.90;;;;;;5075711;28;20438;-71
2023/08/05 03:53:37;;;;;;;8.57;7.68;;;14.30;99.90;;;;;;5075313;28;20410;-70
2023/08/05 03:56:05;;;;;;;9.43;7.65;;;14.30;99.90;;;;;;5078417;28;20536;-70
2023/08/05 03:58:32;;;;;;;8.15;7.35;;;14.30;99.90;;;;;;5087140;28;20429;-71
2023/08/05 04:01:01;;;;;;;8.20;7.50;;;14.20;99.90;;;;;;5083125;28;20421;-71
2023/08/05 04:03:28;;;;;;;8.30;7.40;;;14.20;99.90;;;;;;5086233;28;20433;-70
2023/08/05 04:05:55;;;;;;;8.10;7.30;;;14.30;99.90;;;;;;5078626;28;20428;-74
2023/08/05 04:08:22;;;;;;;7.32;6.72;;;14.30;99.90;;;;;;5071906;28;20411;-71
2023/08/05 04:10:49;;;;;;;7.93;6.70;;;14.30;99.90;;;;;;5082424;28;20430;-71
2023/08/05 04:13:17;;;;;;;7.67;6.37;;;14.30;99.90;;;;;;5081560;28;20441;-71
2023/08/05 04:15:45;;;;;;;7.07;6.40;;;14.30;99.90;;;;;;5085189;28;20429;-71
2023/08/05 04:18:13;;;;;;;8.98;6.82;;;14.30;99.90;;;;;;5079633;28;20802;-71
2023/08/05 04:20:40;;;;;;;7.00;6.40;;;14.40;99.90;;;;;;5075990;28;20437;-70
2023/08/05 04:23:09;;;;;;;6.80;6.20;;;14.40;99.90;;;;;;5077236;28;20427;-71
2023/08/05 04:25:35;;;;;;;6.93;6.32;;;14.40;99.90;;;;;;5081102;28;20995;-70
2023/08/05 04:28:02;;;;;;;7.80;6.40;;;14.40;99.90;;;;;;5084998;28;20437;-70
2023/08/05 04:30:29;;;;;;;7.40;6.57;;;14.40;99.90;;;;;;5082206;28;20931;-70
2023/08/05 04:32:55;;;;;;;6.60;6.00;;;14.40;99.90;;;;;;5086799;28;20441;-71
2023/08/05 04:35:23;;;;;;;7.03;6.40;;;14.40;99.90;;;;;;5077458;28;20421;-71
2023/08/05 04:37:50;;;;;;;7.05;6.35;;;14.40;99.90;;;;;;5080714;28;20450;-71
2023/08/05 04:40:17;;;;;;;7.10;6.40;;;14.40;99.90;;;;;;5082174;28;20451;-72
2023/08/05 04:42:45;;;;;;;6.78;6.07;;;14.40;99.90;;;;;;5075374;28;20427;-70
2023/08/05 04:45:12;;;;;;;7.70;7.10;;;14.40;99.90;;;;;;5081841;28;20426;-72
2023/08/05 04:47:40;;;;;;;7.63;6.93;;;14.50;99.90;;;;;;5087273;28;20421;-72
2023/08/05 04:50:07;;;;;;;7.63;6.60;;;14.50;99.90;;;;;;5076203;28;20426;-71
2023/08/05 04:52:35;;;;;;;7.20;6.50;;;14.50;99.90;;;;;;5089320;28;20453;-71
2023/08/05 04:55:09;;;;;;;7.87;6.93;;;14.60;99.90;;;;;;5076277;28;20962;-71
2023/08/05 04:57:36;;;;;;;8.55;7.15;;;14.50;99.90;;;;;;5089878;28;20983;-70
2023/08/05 05:00:03;;;;;;;7.90;7.07;;;14.60;99.90;;;;;;5078095;28;20439;-70
2023/08/05 05:02:30;;;;;;;7.60;7.00;;;14.70;99.90;;;;;;5088607;28;20429;-70
2023/08/05 05:04:56;;;;;;;8.00;7.18;;;14.70;99.90;;;;;;5089714;28;20437;-71
2023/08/05 05:07:23;;;;;;;7.93;7.13;;;14.80;99.90;;;;;;5075313;28;20427;-71
2023/08/05 05:09:51;;;;;;;7.65;6.90;;;14.80;99.90;;;;;;5079256;28;20886;-71
2023/08/05 05:12:18;;;;;;;9.02;6.97;;;14.80;99.90;;;;;;5083788;28;20928;-71
2023/08/05 05:14:46;;;;;;;7.07;6.47;;;14.80;99.90;;;;;;5085580;28;20421;-70
2023/08/05 05:17:15;;;;;;;7.70;7.00;;;14.80;99.90;;;;;;5081268;28;20442;-71
2023/08/05 05:19:42;;;;;;;8.23;7.30;;;14.80;99.90;;;;;;5076015;28;20554;-71
2023/08/05 05:22:09;;;;;;;8.15;7.05;;;14.80;99.90;;;;;;5085747;28;20430;-70
2023/08/05 05:24:36;;;;;;;7.63;6.82;;;14.80;99.90;;;;;;5084046;28;20437;-72
2023/08/05 05:27:04;;;;;;;7.82;6.70;;;14.80;99.90;;;;;;5076202;28;20910;-70
2023/08/05 05:29:31;;;;;;;11.98;7.57;;;14.80;99.90;;;;;;5076608;28;20462;-70
2023/08/05 05:31:58;;;;;;;7.97;7.28;;;14.80;99.90;;;;;;5083277;28;20426;-71
2023/08/05 05:34:24;;;;;;;8.95;7.65;;;14.80;99.90;;;;;;5089576;28;20449;-71
2023/08/05 05:36:51;;;;;;;7.90;7.20;;;14.80;99.90;;;;;;5090719;28;20921;-70
2023/08/05 05:39:18;;;;;;;7.97;7.28;;;14.80;99.90;;;;;;5086443;28;20465;-71
2023/08/05 05:41:45;;;;;;;8.00;7.20;;;14.90;99.90;;;;;;5080255;28;20422;-70
2023/08/05 05:44:13;;;;;;;8.38;6.90;;;14.90;99.90;;;;;;5094537;28;20434;-70
2023/08/05 05:46:39;;;;;;;7.93;7.13;;;14.90;99.90;;;;;;5101257;28;20450;-71
2023/08/05 05:49:06;;;;;;;7.40;6.70;;;15.00;99.90;;;;;;5090205;28;20456;-70
2023/08/05 05:51:34;;;;;;;9.02;8.13;;;15.00;99.90;;;;;;5089402;28;20430;-72
2023/08/05 05:54:01;;;;;;;8.05;7.13;;;15.10;99.90;;;;;;5084914;28;20426;-71
2023/08/05 05:56:27;;;;;;;7.80;7.00;;;15.20;99.90;;;;;;5081230;28;20602;-71
2023/08/05 05:58:54;;;;;;;7.85;7.15;;;15.20;99.90;;;;;;5086502;28;20418;-71
2023/08/05 06:01:23;;;;;;;7.78;7.05;;;15.30;99.90;;;;;;5089143;28;20532;-71
2023/08/05 06:03:51;;;;;;;7.90;7.10;;;15.40;99.90;;;;;;5083795;28;20890;-72
2023/08/05 06:06:18;;;;;;;8.30;7.50;;;15.50;99.90;;;;;;5093161;28;20497;-72
2023/08/05 06:08:44;;;;;;;8.20;7.30;;;15.50;99.90;;;;;;5093998;28;20485;-72
2023/08/05 06:11:11;;;;;;;8.88;7.90;;;15.50;99.90;;;;;;5100145;28;20449;-72
2023/08/05 06:13:38;;;;;;;8.95;8.15;;;15.50;99.90;;;;;;5107386;28;20422;-73
2023/08/05 06:16:05;;;;;;;9.48;8.70;;;15.50;99.90;;;;;;5112113;28;20587;-74
2023/08/05 06:18:33;;;;;;;9.60;8.70;;;15.50;99.90;;;;;;5112081;28;20430;-72
2023/08/05 06:21:00;;;;;;;10.07;9.07;;;15.50;99.90;;;;;;5111039;28;20426;-74
2023/08/05 06:23:26;;;;;;;9.90;8.90;;;15.60;99.90;;;;;;5105279;28;20414;-72
2023/08/05 06:25:53;;;;;;;9.95;9.05;;;15.60;99.90;;;;;;5104414;28;20418;-73
2023/08/05 06:28:20;;;;;;;9.98;8.95;;;15.70;99.90;;;;;;5102504;28;20428;-71
2023/08/05 06:30:47;;;;;;;9.30;8.40;;;15.70;99.90;;;;;;5104344;28;20433;-72
2023/08/05 06:33:14;;;;;;;9.63;8.63;;;15.70;99.90;;;;;;5092996;22;20445;-71
2023/08/05 06:35:42;;;;;;;8.90;8.10;;;15.70;99.90;;;;;;5029820;28;20439;-71
2023/08/05 06:38:09;;;;;;;8.60;7.80;;;15.70;99.90;;;;;;5037267;28;20532;-71
2023/08/05 06:40:36;;;;;;;9.80;9.00;;;15.70;99.90;;;;;;5043517;28;20753;-72
2023/08/05 06:43:02;;;;;;;11.50;10.30;;;15.80;99.90;;;;;;5042638;28;20417;-71
2023/08/05 06:45:31;;;;;;;11.02;10.13;;;15.80;99.90;;;;;;5039157;28;20455;-71
2023/08/05 06:47:57;;;;;;;9.82;9.00;;;15.80;99.90;;;;;;5043735;28;20433;-71
2023/08/05 06:50:24;;;;;;;9.47;8.67;;;15.80;99.90;;;;;;5040232;28;20485;-71
2023/08/05 06:52:52;;;;;;;9.10;8.30;;;15.80;99.90;;;;;;5040418;28;20429;-73
2023/08/05 06:55:19;;;;;;;9.10;8.30;;;15.80;99.90;;;;;;5038006;28;20441;-72
2023/08/05 06:57:48;;;;;;;8.60;7.90;;;15.80;99.90;;;;;;5048394;28;20513;-72
2023/08/05 07:00:15;;;;;;;8.55;7.85;;;15.90;99.90;;;;;;5041071;28;20413;-71
2023/08/05 07:02:42;;;;;;;8.20;7.40;;;15.90;99.90;;;;;;5042796;28;20443;-72
2023/08/05 07:05:09;;;;;;;8.38;7.50;;;16.00;99.90;;;;;;5043040;28;20475;-72
2023/08/05 07:07:36;;;;;;;9.38;7.25;;;16.00;99.90;;;;;;5041386;28;20448;-72
2023/08/05 07:10:07;;;;;;;8.27;7.50;;;16.10;99.90;;;;;;5041114;28;20914;-72
2023/08/05 07:12:34;;;;;;;8.00;7.20;;;16.10;99.90;;;;;;5040935;28;20445;-72
2023/08/05 07:15:01;;;;;;;7.85;7.05;;;16.20;99.90;;;;;;5041095;28;20433;-72
2023/08/05 07:17:28;;;;;;;8.40;7.43;;;16.20;99.90;;;;;;5039523;28;20429;-71
2023/08/05 07:19:54;;;;;;;8.20;7.40;;;16.20;99.90;;;;;;5040000;28;20441;-71
2023/08/05 07:22:21;;;;;;;7.70;7.00;;;16.20;99.90;;;;;;5041032;28;20451;-71
2023/08/05 07:24:48;;;;;;;7.97;7.27;;;16.10;99.90;;;;;;5042637;28;20436;-71
2023/08/05 07:27:16;;;;;;;7.50;6.90;;;16.00;99.90;;;;;;5047186;28;20476;-72
2023/08/05 07:29:43;;;;;;;8.07;7.10;;;16.00;99.90;;;;;;5035806;28;20911;-72
2023/08/05 07:32:10;;;;;;;7.60;6.90;;;16.00;99.90;;;;;;5040898;28;20448;-71
2023/08/05 07:34:37;;;;;;;7.75;7.05;;;16.10;99.90;;;;;;5040496;28;20499;-71
2023/08/05 07:37:05;;;;;;;7.10;6.50;;;16.20;99.90;;;;;;5041735;28;20717;-71
2023/08/05 07:39:34;;;;;;;6.32;5.72;;;16.30;99.90;;;;;;5042608;28;20512;-71
2023/08/05 07:42:02;;;;;;;7.88;7.18;;;16.40;99.90;;;;;;5040816;28;20422;-71
2023/08/05 07:44:31;;;;;;;6.40;5.80;;;16.70;99.90;;;;;;5042137;28;20523;-71
2023/08/05 07:46:58;;;;;;;6.32;5.72;;;16.90;99.90;;;;;;5039607;28;20503;-70
2023/08/05 07:49:25;;;;;;;6.20;5.60;;;17.10;99.90;;;;;;5038597;28;20562;-71
2023/08/05 07:51:53;;;;;;;6.43;5.83;;;17.40;99.90;;;;;;5039249;28;20745;-71
2023/08/05 07:54:20;;;;;;;5.70;5.18;;;17.50;99.90;;;;;;5042823;28;20601;-71
2023/08/05 07:56:48;;;;;;;5.90;5.20;;;17.70;99.90;;;;;;5043111;28;20433;-71
2023/08/05 07:59:17;;;;;;;5.60;4.93;;;17.90;99.90;;;;;;5042243;28;20498;-74
2023/08/05 08:01:45;;;;;;;6.30;5.70;;;18.00;99.90;;;;;;5039395;28;20444;-75
2023/08/05 08:04:13;;;;;;;4.72;4.32;;;18.20;99.90;;;;;;5042382;28;20443;-75
2023/08/05 08:06:42;;;;;;;6.00;5.38;;;18.40;98.90;;;;;;5042026;28;20907;-75
2023/08/05 08:09:08;;;;;;;5.78;4.95;;;18.60;97.40;;;;;;5043197;28;20417;-74
2023/08/05 08:11:35;;;;;;;5.90;5.30;;;18.80;97.80;;;;;;5042019;28;20448;-75
2023/08/05 08:14:03;;;;;;;5.63;5.10;;;19.00;97.20;;;;;;5048189;28;20469;-75
2023/08/05 08:16:29;;;;;;;6.05;5.45;;;19.30;96.30;;;;;;5045331;28;20461;-75
2023/08/05 08:18:57;;;;;;;5.68;5.18;;;19.50;95.40;;;;;;5046366;28;20532;-75
2023/08/05 08:21:24;;;;;;;5.25;4.85;;;19.70;94.50;;;;;;5030875;28;20448;-74
2023/08/05 08:23:51;;;;;;;5.95;5.45;;;19.80;94.50;;;;;;5044222;28;20441;-76
2023/08/05 08:26:18;;;;;;;5.70;5.10;;;20.00;93.20;;;;;;5043080;28;20417;-75
2023/08/05 08:28:44;;;;;;;5.32;4.93;;;20.00;93.20;;;;;;5039780;28;20443;-74
2023/08/05 08:31:11;;;;;;;4.90;4.40;;;20.20;92.60;;;;;;5038543;28;20476;-75
2023/08/05 08:33:38;;;;;;;5.00;4.60;;;20.50;92.50;;;;;;5043673;28;20418;-75
2023/08/05 08:36:06;;;;;;;4.85;4.32;;;20.90;91.50;;;;;;5044746;28;20753;-74
2023/08/05 08:38:33;;;;;;;6.00;4.70;;;21.20;90.80;;;;;;5045237;28;20485;-74
2023/08/05 08:41:02;;;;;;;4.78;4.30;;;21.40;88.40;;;;;;5041781;28;20424;-74
2023/08/05 08:43:29;;;;;;;4.68;4.28;;;21.50;86.70;;;;;;5041589;28;20935;-73
2023/08/05 08:45:56;;;;;;;4.30;3.90;;;21.50;85.00;;;;;;5042681;28;20509;-75
2023/08/05 08:48:24;;;;;;;4.88;3.60;;;21.60;87.20;;;;;;5043914;28;20428;-74
2023/08/05 08:50:53;;;;;;;4.32;3.92;;;21.90;85.70;;;;;;5042897;28;20429;-74
2023/08/05 08:53:21;;;;;;;4.30;3.90;;;22.10;81.30;;;;;;5042208;28;20411;-75
2023/08/05 08:55:48;;;;;;;4.40;4.00;;;22.00;82.00;;;;;;5043543;28;20421;-75
2023/08/05 08:58:16;;;;;;;4.90;4.27;;;21.90;82.30;;;;;;5045040;28;20456;-75
2023/08/05 09:00:43;;;;;;;4.20;3.60;;;21.90;80.90;;;;;;5043097;28;20872;-75
2023/08/05 09:03:11;;;;;;;4.55;4.03;;;21.80;82.10;;;;;;5040121;28;20518;-75
2023/08/05 09:05:42;;;;;;;4.20;3.90;;;21.80;82.00;;;;;;5040845;28;20424;-74
2023/08/05 09:08:10;;;;;;;5.50;3.80;;;21.80;81.30;;;;;;5040749;28;20421;-75
2023/08/05 09:10:38;;;;;;;4.40;4.00;;;21.80;82.30;;;;;;5039884;28;20502;-74
2023/08/05 09:13:06;;;;;;;4.30;3.90;;;22.00;83.70;;;;;;5040998;28;20423;-74
2023/08/05 09:15:33;;;;;;;3.90;3.50;;;22.00;83.50;;;;;;5044313;28;20810;-75
2023/08/05 09:18:00;;;;;;;3.20;2.90;;;22.20;82.70;;;;;;5043194;28;20437;-71
2023/08/05 09:20:27;;;;;;;3.55;3.25;;;22.40;81.10;;;;;;5042788;28;20794;-72
2023/08/05 09:22:55;;;;;;;3.90;3.20;;;22.60;78.30;;;;;;5030455;28;20435;-71
2023/08/05 09:25:23;;;;;;;3.55;2.95;;;22.50;76.90;;;;;;5032917;28;20460;-71
2023/08/05 09:27:52;;;;;;;4.07;3.67;;;22.70;77.50;;;;;;5039027;28;20406;-71
2023/08/05 09:30:20;;;;;;;3.30;3.00;;;22.70;77.70;;;;;;5039633;28;20618;-71
2023/08/05 09:32:47;;;;;;;3.42;2.80;;;22.70;77.90;;;;;;5043900;28;20440;-71
2023/08/05 09:35:14;;;;;;;3.90;2.80;;;23.00;75.70;;;;;;5040608;28;20445;-72
2023/08/05 09:37:44;;;;;;;3.35;2.70;;;23.20;74.00;;;;;;5040526;28;20429;-71
2023/08/05 09:40:18;;;;;;;3.85;2.80;;;23.30;71.80;;;;;;5038259;28;20465;-71
2023/08/05 09:42:48;;;;;;;5.60;5.10;;;23.50;71.10;;;;;;5040778;28;20433;-72
2023/08/05 09:45:18;;;;;;;3.40;3.10;;;23.60;69.00;;;;;;5041178;28;20975;-71
2023/08/05 09:47:47;;;;;;;2.92;2.63;;;23.40;68.90;;;;;;5031492;28;20425;-72
2023/08/05 09:50:15;;;;;;;3.20;2.90;;;23.10;71.20;;;;;;5038432;28;20456;-72
2023/08/05 09:52:43;;;;;;;4.47;2.67;;;22.90;71.30;;;;;;5034133;28;20411;-72
2023/08/05 09:55:13;;;;;;;2.85;2.30;;;23.00;73.20;;;;;;5034457;28;20892;-71
2023/08/05 09:57:41;;;;;;;2.53;2.33;;;23.20;71.60;;;;;;5031739;28;20812;-71
2023/08/05 10:00:11;;;;;;;3.10;2.20;;;23.20;70.30;;;;;;5037018;28;20871;-71
2023/08/05 10:02:41;;;;;;;2.45;2.25;;;23.20;71.00;;;;;;5031600;28;20546;-70
2023/08/05 10:05:09;;;;;;;3.00;2.70;;;22.90;70.70;;;;;;5036107;28;20429;-71
2023/08/05 10:07:36;;;;;;;3.07;2.77;;;22.40;71.80;;;;;;5032347;28;20526;-73
2023/08/05 10:10:06;;;;;;;2.97;2.63;;;22.10;74.40;;;;;;5032686;28;20506;-70
2023/08/05 10:12:38;;;;;;;4.30;3.58;;;21.90;76.00;;;;;;5035052;28;21124;-72
2023/08/05 10:15:07;;;;;;;4.10;3.20;;;21.90;76.00;;;;;;5039580;28;20411;-71
2023/08/05 10:17:40;;;;;;;4.50;3.40;;;22.10;76.50;;;;;;5038688;28;20428;-73
2023/08/05 10:20:08;;;;;;;3.28;2.97;;;22.30;73.60;;;;;;5042673;28;20516;-73
2023/08/05 10:22:38;;;;;;;3.25;2.90;;;22.60;72.40;;;;;;5043347;28;20425;-73
2023/08/05 10:25:05;;;;;;;3.17;2.80;;;22.90;72.20;;;;;;5043642;28;20483;-73
2023/08/05 10:27:40;;;;;;;4.10;2.73;;;23.10;71.60;;;;;;5041464;28;20437;-71
2023/08/05 10:30:13;;;;;;;4.20;3.00;;;23.30;69.40;;;;;;5042145;28;20448;-72
2023/08/05 10:32:52;;;;;;;3.22;2.92;;;23.30;69.60;;;;;;5037868;28;20428;-72
2023/08/05 10:35:29;;;;;;;2.90;2.70;;;23.20;69.30;;;;;;5042148;28;20424;-70
2023/08/05 10:38:07;;;;;;;3.70;3.40;;;23.10;71.10;;;;;;5041248;28;20468;-69
2023/08/05 10:40:48;;;;;;;3.30;3.00;;;22.90;70.50;;;;;;5049389;28;20507;-72
2023/08/05 10:43:35;;;;;;;3.28;3.00;;;22.80;71.80;;;;;;5043164;28;20425;-71
2023/08/05 10:46:12;;;;;;;3.20;2.90;;;22.60;72.10;;;;;;5038360;28;20436;-71
2023/08/05 10:48:42;;;;;;;3.50;3.20;;;22.40;72.00;;;;;;5042820;28;20425;-70
2023/08/05 10:51:11;;;;;;;3.00;2.70;;;22.40;72.70;;;;;;5042064;28;20516;-70
2023/08/05 10:53:38;;;;;;;3.10;2.80;;;22.20;71.70;;;;;;5043335;28;20733;-71
2023/08/05 10:56:09;;;;;;;2.20;2.00;;;22.10;71.90;;;;;;5042617;28;20441;-75
2023/08/05 10:58:37;;;;;;;2.10;1.70;;;22.00;70.30;;;;;;5043380;28;20437;-71
2023/08/05 11:01:05;;;;;;;2.40;1.77;;;22.00;68.30;;;;;;5044138;28;20777;-72
2023/08/05 11:03:33;;;;;;;1.90;1.42;;;22.10;67.50;;;;;;5037952;28;20429;-71
2023/08/05 11:06:05;;;;;;;2.08;1.60;;;22.10;66.10;;;;;;5043263;28;20523;-72
2023/08/05 11:08:33;;;;;;;1.65;1.55;;;22.10;64.40;;;;;;5037730;28;20405;-73
2023/08/05 11:11:04;;;;;;;1.70;1.25;;;22.10;66.50;;;;;;5036933;28;20421;-73
2023/08/05 11:13:35;;;;;;;1.90;1.30;;;22.10;65.00;;;;;;5036769;28;20845;-72
2023/08/05 11:16:07;;;;;;;1.95;1.40;;;21.90;63.70;;;;;;5045152;28;20421;-73
2023/08/05 11:18:35;;;;;;;1.50;1.33;;;21.80;66.20;;;;;;5036844;28;20425;-74
2023/08/05 11:21:05;;;;;;;1.70;1.60;;;21.80;65.30;;;;;;5043669;28;20420;-72
2023/08/05 11:23:32;;;;;;;1.60;1.40;;;21.80;65.30;;;;;;5041043;28;20460;-72
2023/08/05 11:26:01;;;;;;;1.67;1.50;;;21.80;65.20;;;;;;5044094;28;20455;-72
2023/08/05 11:28:28;;;;;;;1.60;1.40;;;21.70;65.70;;;;;;5038417;28;20484;-72
2023/08/05 11:30:55;;;;;;;1.90;1.40;;;21.90;65.20;;;;;;5038211;28;20978;-71
2023/08/05 11:33:23;;;;;;;1.90;1.40;;;21.90;65.70;;;;;;5042681;28;20421;-71
2023/08/05 11:35:52;;;;;;;1.55;1.30;;;22.20;63.00;;;;;;5043995;28;20421;-72
2023/08/05 11:38:21;;;;;;;1.38;1.20;;;22.30;61.90;;;;;;5044431;28;20452;-72
2023/08/05 11:40:49;;;;;;;2.13;1.50;;;22.50;63.90;;;;;;5043819;28;20845;-72
2023/08/05 11:43:17;;;;;;;1.50;1.20;;;22.70;62.80;;;;;;5042953;28;20425;-72
2023/08/05 11:45:44;;;;;;;1.42;1.20;;;22.80;62.60;;;;;;5043396;28;20464;-74
2023/08/05 11:48:21;;;;;;;1.80;1.25;;;22.80;63.10;;;;;;5046580;28;20492;-73
2023/08/05 11:50:50;;;;;;;2.30;1.10;;;22.90;60.80;;;;;;5048003;28;20413;-71
2023/08/05 11:53:17;;;;;;;1.30;1.00;;;23.20;57.70;;;;;;5048359;28;20412;-72
2023/08/05 11:55:46;;;;;;;1.30;1.07;;;23.30;58.00;;;;;;5047049;28;20439;-72
2023/08/05 11:58:13;;;;;;;1.30;1.20;;;23.30;59.00;;;;;;5047054;28;20449;-72
2023/08/05 12:00:46;;;;;;;1.70;1.20;;;23.40;60.50;;;;;;5048146;28;20913;-73
2023/08/05 12:03:14;;;;;;;1.35;1.20;;;23.50;61.50;;;;;;5047485;28;20429;-73
2023/08/05 12:05:42;;;;;;;1.37;1.13;;;23.60;61.30;;;;;;5047890;28;20421;-74
2023/08/05 12:08:09;;;;;;;2.80;1.30;;;23.50;58.90;;;;;;5045161;28;20783;-75
2023/08/05 12:10:36;;;;;;;2.53;1.40;;;23.40;59.30;;;;;;5034541;28;20525;-74
2023/08/05 12:13:05;;;;;;;1.60;1.20;;;23.40;60.00;;;;;;5039653;28;20457;-74
2023/08/05 12:15:32;;;;;;;1.40;1.30;;;23.30;61.80;;;;;;5042579;28;20444;-73
2023/08/05 12:18:01;;;;;;;1.80;1.50;;;23.10;61.30;;;;;;5038447;28;20423;-73
2023/08/05 12:20:29;;;;;;;2.08;1.60;;;22.90;71.30;;;;;;5050427;28;20444;-72
2023/08/05 12:22:58;;;;;;;2.93;2.20;;;22.60;73.90;;;;;;5044376;28;20432;-72
2023/08/05 12:25:25;;;;;;;2.33;2.13;;;22.20;83.50;;;;;;5041986;28;20548;-72
2023/08/05 12:27:52;;;;;;;2.03;1.92;;;21.70;88.40;;;;;;5040106;28;20502;-71
2023/08/05 12:30:21;;;;;;;2.80;1.90;;;21.40;88.00;;;;;;5043236;28;20890;-72
2023/08/05 12:32:48;;;;;;;2.20;2.00;;;21.30;85.90;;;;;;5040389;28;20417;-71
2023/08/05 12:35:15;;;;;;;3.03;2.22;;;21.10;89.00;;;;;;5035041;28;20977;-71
2023/08/05 12:37:42;;;;;;;2.50;2.30;;;21.10;90.20;;;;;;5035606;28;20436;-72
2023/08/05 12:40:10;;;;;;;2.80;2.50;;;21.00;90.30;;;;;;5039215;28;20948;-71
2023/08/05 12:42:38;;;;;;;2.75;2.55;;;20.90;90.40;;;;;;5063222;22;20937;-72
2023/08/05 12:45:07;;;;;;;4.40;3.50;;;20.80;92.20;;;;;;5061965;28;20501;-70
2023/08/05 12:47:36;;;;;;;3.47;3.08;;;20.70;96.10;;;;;;5059074;28;20431;-71